Time;durP1;ratioP1;P1;durP2;ratioP2;P2;SDS_P1;SDS_P2;PMS_P1;PMS_P2;Temp;Humidity;BMP_temperature;BMP_pressure;BME280_temperature;BME280_humidity;BME280_pressure;Samples;Min_cycle;Max_cycle;Signal;HPM_P1;HPM_P2
2021/06/13 00:01:34;;;;;;;11.00;9.90;;;16.90;99.90;;;;;;5089130;28;20519;-65
2021/06/13 00:04:00;;;;;;;11.17;10.00;;;16.90;99.90;;;;;;5080918;28;20570;-64
2021/06/13 00:06:26;;;;;;;10.70;9.67;;;16.90;99.90;;;;;;5091174;28;21067;-65
2021/06/13 00:08:54;;;;;;;10.47;9.37;;;17.00;99.90;;;;;;5090314;28;20552;-65
2021/06/13 00:11:21;;;;;;;10.87;9.63;;;17.00;99.90;;;;;;5090421;28;20460;-66
2021/06/13 00:13:48;;;;;;;9.60;8.60;;;17.20;99.90;;;;;;5091136;28;20456;-68
2021/06/13 00:16:17;;;;;;;14.70;10.40;;;17.20;99.90;;;;;;5092691;28;20446;-66
2021/06/13 00:18:44;;;;;;;11.23;10.13;;;17.20;99.90;;;;;;5093214;28;20545;-66
2021/06/13 00:21:12;;;;;;;13.67;10.30;;;17.30;99.90;;;;;;5092357;28;20923;-66
2021/06/13 00:23:40;;;;;;;11.00;8.60;;;17.30;99.90;;;;;;5092441;28;20446;-66
2021/06/13 00:26:06;;;;;;;12.03;9.67;;;17.30;99.90;;;;;;5092605;28;20458;-68
2021/06/13 00:28:33;;;;;;;10.80;9.10;;;17.30;99.90;;;;;;5091451;28;20812;-68
2021/06/13 00:30:59;;;;;;;11.77;9.60;;;17.30;99.90;;;;;;5092590;28;20545;-67
2021/06/13 00:33:27;;;;;;;11.27;9.90;;;17.30;99.90;;;;;;5092151;28;20538;-66
2021/06/13 00:35:53;;;;;;;10.37;8.67;;;17.20;99.90;;;;;;5092612;28;20492;-68
2021/06/13 00:38:19;;;;;;;10.20;9.17;;;17.20;99.90;;;;;;5092646;28;20453;-68
2021/06/13 00:40:46;;;;;;;11.03;9.00;;;17.20;99.90;;;;;;5092149;28;20474;-68
2021/06/13 00:43:12;;;;;;;9.97;8.90;;;17.20;99.90;;;;;;5092081;28;20836;-68
2021/06/13 00:45:39;;;;;;;11.27;9.57;;;17.20;99.90;;;;;;5092124;28;20632;-68
2021/06/13 00:48:06;;;;;;;10.33;8.80;;;17.20;99.90;;;;;;5091929;28;20537;-67
2021/06/13 00:50:38;;;;;;;10.37;9.20;;;17.20;99.90;;;;;;5091660;28;20505;-68
2021/06/13 00:53:06;;;;;;;10.43;8.80;;;17.10;99.90;;;;;;5092146;28;20453;-68
2021/06/13 00:55:33;;;;;;;14.23;8.77;;;17.10;99.90;;;;;;5091594;28;20464;-68
2021/06/13 00:58:00;;;;;;;10.27;9.10;;;17.10;99.90;;;;;;5092012;28;20526;-68
2021/06/13 01:00:28;;;;;;;11.30;10.17;;;17.00;99.90;;;;;;5091396;28;20485;-68
2021/06/13 01:02:54;;;;;;;10.60;9.50;;;16.90;99.90;;;;;;5091752;28;20454;-68
2021/06/13 01:05:20;;;;;;;11.20;9.93;;;16.90;99.90;;;;;;5091386;28;20478;-68
2021/06/13 01:07:58;;;;;;;9.93;8.93;;;16.90;99.90;;;;;;5091637;28;20801;-69
2021/06/13 01:10:34;;;;;;;10.90;9.80;;;16.70;99.90;;;;;;5091021;28;20912;-69
2021/06/13 01:13:06;;;;;;;11.73;10.53;;;16.60;99.90;;;;;;5091805;28;20532;-68
2021/06/13 01:15:38;;;;;;;13.30;10.47;;;16.60;99.90;;;;;;5091335;28;20533;-68
2021/06/13 01:18:11;;;;;;;11.13;9.80;;;16.50;99.90;;;;;;5091496;28;20426;-68
2021/06/13 01:20:42;;;;;;;12.10;10.30;;;16.50;99.90;;;;;;5091054;28;20519;-68
2021/06/13 01:23:39;;;;;;;11.50;9.87;;;16.30;99.90;;;;;;5091482;28;20464;-68
2021/06/13 01:26:22;;;;;;;11.40;9.67;;;16.20;99.90;;;;;;5091237;28;20438;-68
2021/06/13 01:28:58;;;;;;;10.47;9.30;;;16.10;99.90;;;;;;5090828;28;20474;-67
2021/06/13 01:31:28;;;;;;;11.13;9.83;;;16.10;99.90;;;;;;5091873;28;20533;-69
2021/06/13 01:33:56;;;;;;;10.40;9.33;;;16.10;99.90;;;;;;5091802;28;20968;-68
2021/06/13 01:36:24;;;;;;;11.00;9.90;;;16.00;99.90;;;;;;5091386;28;20599;-68
2021/06/13 01:38:51;;;;;;;12.00;9.70;;;16.00;99.90;;;;;;5090967;28;20450;-68
2021/06/13 01:41:21;;;;;;;12.53;9.50;;;15.90;99.90;;;;;;5091343;28;20480;-68
2021/06/13 01:43:51;;;;;;;11.00;9.83;;;15.90;99.90;;;;;;5090849;28;20438;-68
2021/06/13 01:46:20;;;;;;;11.33;9.40;;;15.90;99.90;;;;;;5092007;28;20880;-69
2021/06/13 01:48:47;;;;;;;10.90;9.77;;;15.90;99.90;;;;;;5090994;28;20536;-69
2021/06/13 01:51:14;;;;;;;12.83;10.23;;;15.90;99.90;;;;;;5090907;28;20446;-69
2021/06/13 01:53:43;;;;;;;10.73;9.50;;;15.80;99.90;;;;;;5090941;28;21014;-69
2021/06/13 01:56:12;;;;;;;12.03;9.53;;;15.80;99.90;;;;;;5091289;28;20443;-69
2021/06/13 01:58:39;;;;;;;11.60;9.80;;;15.70;99.90;;;;;;5090767;28;20536;-69
2021/06/13 02:01:07;;;;;;;11.73;9.40;;;15.70;99.90;;;;;;5090830;28;20448;-69
2021/06/13 02:03:37;;;;;;;11.07;9.50;;;15.70;99.90;;;;;;5090924;28;20533;-68
2021/06/13 02:06:04;;;;;;;11.77;9.90;;;15.70;99.90;;;;;;5090734;28;20941;-68
2021/06/13 02:08:33;;;;;;;13.93;10.10;;;15.70;99.90;;;;;;5091012;28;20442;-69
2021/06/13 02:11:02;;;;;;;12.30;9.43;;;15.70;99.90;;;;;;5090218;28;20966;-69
2021/06/13 02:13:29;;;;;;;10.33;9.27;;;15.70;99.90;;;;;;5090944;28;20472;-69
2021/06/13 02:15:57;;;;;;;10.60;9.50;;;15.80;99.90;;;;;;5090330;28;20460;-69
2021/06/13 02:18:25;;;;;;;12.10;9.60;;;15.80;99.90;;;;;;5090541;28;20438;-69
2021/06/13 02:20:53;;;;;;;10.60;9.53;;;15.80;99.90;;;;;;5090033;28;20529;-69
2021/06/13 02:23:23;;;;;;;10.83;9.47;;;15.90;99.90;;;;;;5090753;28;20858;-69
2021/06/13 02:25:49;;;;;;;11.43;9.43;;;15.90;99.90;;;;;;5090535;28;20497;-69
2021/06/13 02:28:16;;;;;;;11.87;9.80;;;15.90;99.90;;;;;;5090484;28;20446;-69
2021/06/13 02:30:44;;;;;;;12.40;8.90;;;15.90;99.90;;;;;;5090097;28;20541;-69
2021/06/13 02:33:13;;;;;;;10.63;9.43;;;16.00;99.90;;;;;;5090136;28;20442;-69
2021/06/13 02:35:45;;;;;;;11.53;9.27;;;16.00;99.90;;;;;;5090368;28;20459;-68
2021/06/13 02:38:13;;;;;;;10.03;8.60;;;16.10;99.90;;;;;;5089886;28;20446;-69
2021/06/13 02:40:40;;;;;;;11.97;10.33;;;16.10;99.90;;;;;;5090632;28;20870;-69
2021/06/13 02:43:06;;;;;;;12.03;8.30;;;16.20;99.90;;;;;;5092634;28;20530;-69
2021/06/13 02:45:33;;;;;;;10.07;9.00;;;16.20;99.90;;;;;;5089744;28;21169;-69
2021/06/13 02:47:59;;;;;;;10.93;9.73;;;16.30;99.90;;;;;;5089582;28;20453;-69
2021/06/13 02:50:27;;;;;;;9.63;8.57;;;16.30;99.90;;;;;;5089757;28;20446;-69
2021/06/13 02:52:59;;;;;;;13.90;9.13;;;16.30;99.90;;;;;;5089839;28;20456;-69
2021/06/13 02:55:36;;;;;;;10.33;9.17;;;16.40;99.90;;;;;;5089779;28;20990;-69
2021/06/13 02:58:14;;;;;;;11.37;8.00;;;16.40;99.90;;;;;;5089640;28;20867;-69
2021/06/13 03:00:41;;;;;;;11.37;9.33;;;16.40;99.90;;;;;;5089369;28;20932;-69
2021/06/13 03:03:07;;;;;;;10.93;9.60;;;16.40;99.90;;;;;;5089557;28;20862;-69
2021/06/13 03:05:35;;;;;;;12.83;9.70;;;16.40;99.90;;;;;;5089736;28;20489;-69
2021/06/13 03:08:01;;;;;;;11.10;9.90;;;16.40;99.90;;;;;;5089841;28;20447;-69
2021/06/13 03:10:29;;;;;;;11.20;9.30;;;16.30;99.90;;;;;;5089358;28;20935;-69
2021/06/13 03:12:57;;;;;;;11.07;9.87;;;16.20;99.90;;;;;;5089703;28;20446;-69
2021/06/13 03:15:27;;;;;;;10.57;9.53;;;16.20;99.90;;;;;;5089325;28;20892;-68
2021/06/13 03:17:54;;;;;;;10.60;9.50;;;16.20;99.90;;;;;;5089842;28;20476;-69
2021/06/13 03:20:21;;;;;;;14.60;9.37;;;16.20;99.90;;;;;;5089315;28;20450;-69
2021/06/13 03:22:48;;;;;;;10.23;8.50;;;16.20;99.90;;;;;;5090012;28;20438;-69
2021/06/13 03:25:15;;;;;;;12.83;9.30;;;16.20;99.90;;;;;;5089600;28;20481;-68
2021/06/13 03:27:44;;;;;;;9.93;8.27;;;16.30;99.90;;;;;;5090737;28;20479;-69
2021/06/13 03:30:11;;;;;;;11.13;9.17;;;16.30;99.90;;;;;;5089533;28;20530;-69
2021/06/13 03:32:38;;;;;;;11.43;7.97;;;16.30;99.90;;;;;;5090025;28;20442;-69
2021/06/13 03:35:07;;;;;;;9.13;8.00;;;16.40;99.90;;;;;;5089878;28;20462;-68
2021/06/13 03:37:36;;;;;;;10.93;9.20;;;16.50;99.90;;;;;;5089544;28;21007;-68
2021/06/13 03:40:04;;;;;;;11.07;8.33;;;16.50;99.90;;;;;;5089264;28;20446;-69
2021/06/13 03:42:31;;;;;;;10.13;8.90;;;16.50;99.90;;;;;;5089688;28;20452;-66
2021/06/13 03:45:00;;;;;;;11.03;8.40;;;16.50;99.90;;;;;;5089411;28;20486;-68
2021/06/13 03:47:31;;;;;;;10.83;8.27;;;16.50;99.90;;;;;;5089643;28;20443;-69
2021/06/13 03:49:58;;;;;;;12.67;7.60;;;16.60;99.90;;;;;;5089764;28;20450;-69
2021/06/13 03:52:26;;;;;;;10.47;8.10;;;16.60;99.90;;;;;;5093156;28;20454;-69
2021/06/13 03:54:53;;;;;;;10.93;8.43;;;16.60;99.90;;;;;;5093529;28;20462;-69
2021/06/13 03:57:21;;;;;;;9.50;8.60;;;16.60;99.90;;;;;;5093591;28;20541;-69
2021/06/13 03:59:49;;;;;;;9.00;8.03;;;16.70;99.90;;;;;;5093116;28;20819;-69
2021/06/13 04:02:18;;;;;;;10.53;7.90;;;16.60;99.90;;;;;;5093282;28;20541;-68
2021/06/13 04:04:51;;;;;;;14.73;8.40;;;16.60;99.90;;;;;;5093306;28;20504;-69
2021/06/13 04:07:19;;;;;;;8.57;7.67;;;16.60;99.90;;;;;;5093680;28;20465;-69
2021/06/13 04:09:47;;;;;;;10.40;7.33;;;16.60;99.90;;;;;;5093362;28;20487;-69
2021/06/13 04:12:17;;;;;;;10.57;8.40;;;16.50;99.90;;;;;;5093083;28;20445;-69
2021/06/13 04:14:45;;;;;;;9.60;8.10;;;16.40;99.90;;;;;;5092371;28;20482;-68
2021/06/13 04:17:14;;;;;;;8.93;7.50;;;16.40;99.90;;;;;;5092900;28;20441;-69
2021/06/13 04:19:43;;;;;;;12.43;8.40;;;16.20;99.90;;;;;;5091928;28;21004;-68
2021/06/13 04:22:12;;;;;;;9.47;7.30;;;16.20;99.90;;;;;;5092877;28;20666;-69
2021/06/13 04:24:41;;;;;;;9.63;7.07;;;16.20;99.90;;;;;;5092246;28;20478;-68
2021/06/13 04:27:10;;;;;;;9.67;7.33;;;16.10;99.90;;;;;;5092443;28;20939;-68
2021/06/13 04:29:37;;;;;;;9.70;7.50;;;16.10;99.90;;;;;;5091879;28;20965;-69
2021/06/13 04:32:07;;;;;;;11.27;6.90;;;16.10;99.90;;;;;;5092282;28;20463;-68
2021/06/13 04:34:34;;;;;;;10.53;7.93;;;16.10;99.90;;;;;;5092008;28;20454;-68
2021/06/13 04:37:02;;;;;;;8.30;6.60;;;16.00;99.90;;;;;;5092459;28;20526;-68
2021/06/13 04:39:30;;;;;;;8.40;6.83;;;16.10;99.90;;;;;;5091986;28;21283;-67
2021/06/13 04:41:56;;;;;;;8.80;7.90;;;16.10;99.90;;;;;;5092216;28;20809;-68
2021/06/13 04:44:23;;;;;;;8.80;7.20;;;16.10;99.90;;;;;;5092060;28;20553;-68
2021/06/13 04:46:50;;;;;;;10.70;7.10;;;16.10;99.90;;;;;;5092033;28;20534;-68
2021/06/13 04:49:17;;;;;;;10.90;6.53;;;16.10;99.90;;;;;;5091911;28;21051;-68
2021/06/13 04:51:47;;;;;;;8.63;6.60;;;16.10;99.90;;;;;;5092046;28;20438;-67
2021/06/13 04:54:34;;;;;;;8.10;6.57;;;16.10;99.90;;;;;;5091931;28;20451;-68
2021/06/13 04:57:17;;;;;;;17.17;6.43;;;16.10;99.90;;;;;;5091899;28;20446;-68
2021/06/13 04:59:43;;;;;;;9.10;7.07;;;16.20;99.90;;;;;;5091702;28;20434;-69
2021/06/13 05:02:11;;;;;;;8.03;6.50;;;16.20;99.90;;;;;;5090624;28;20532;-68
2021/06/13 05:04:38;;;;;;;10.43;6.30;;;16.30;99.90;;;;;;5092197;28;20572;-69
2021/06/13 05:07:06;;;;;;;7.07;6.37;;;16.30;99.90;;;;;;5092764;28;20947;-68
2021/06/13 05:09:34;;;;;;;10.80;6.33;;;16.40;99.90;;;;;;5091350;28;20438;-69
2021/06/13 05:12:01;;;;;;;9.50;6.90;;;16.40;99.90;;;;;;5091582;28;20445;-69
2021/06/13 05:14:28;;;;;;;7.97;6.70;;;16.50;99.90;;;;;;5091420;28;20486;-69
2021/06/13 05:16:55;;;;;;;8.80;6.20;;;16.50;99.90;;;;;;5091493;28;20545;-68
2021/06/13 05:19:21;;;;;;;8.27;5.67;;;16.60;99.90;;;;;;5090892;28;20529;-68
2021/06/13 05:21:48;;;;;;;7.50;5.30;;;16.60;99.90;;;;;;5091631;28;20430;-68
2021/06/13 05:24:15;;;;;;;7.57;6.17;;;16.70;99.90;;;;;;5090894;28;20545;-68
2021/06/13 05:26:44;;;;;;;7.97;7.00;;;16.70;99.90;;;;;;5091614;28;20480;-68
2021/06/13 05:29:10;;;;;;;6.10;5.50;;;16.80;99.90;;;;;;5091297;28;20441;-68
2021/06/13 05:31:37;;;;;;;7.63;5.77;;;16.80;99.90;;;;;;5091577;28;20453;-68
2021/06/13 05:34:04;;;;;;;6.30;5.60;;;16.90;99.90;;;;;;5091135;28;20462;-68
2021/06/13 05:36:31;;;;;;;9.27;5.83;;;16.90;99.90;;;;;;5091233;28;20434;-68
2021/06/13 05:38:58;;;;;;;7.40;6.07;;;17.00;99.90;;;;;;5090533;28;20438;-68
2021/06/13 05:41:25;;;;;;;8.47;6.03;;;17.10;99.90;;;;;;5091094;28;20831;-69
2021/06/13 05:43:53;;;;;;;7.87;4.80;;;17.10;99.90;;;;;;5090946;28;20454;-68
2021/06/13 05:46:22;;;;;;;6.60;4.83;;;17.20;99.90;;;;;;5090661;28;20482;-68
2021/06/13 05:48:49;;;;;;;7.77;4.60;;;17.20;99.90;;;;;;5090856;28;20493;-69
2021/06/13 05:51:16;;;;;;;5.50;5.00;;;17.20;99.90;;;;;;5090266;28;20454;-68
2021/06/13 05:53:42;;;;;;;5.80;5.10;;;17.30;99.90;;;;;;5091194;28;20443;-69
2021/06/13 05:56:09;;;;;;;8.80;6.20;;;17.30;99.90;;;;;;5090675;28;20730;-70
2021/06/13 05:58:36;;;;;;;7.73;5.47;;;17.40;99.90;;;;;;5085072;28;20885;-67
2021/06/13 06:01:05;;;;;;;8.50;5.73;;;17.40;99.90;;;;;;5085189;28;20521;-69
2021/06/13 06:03:31;;;;;;;5.80;4.53;;;17.40;99.90;;;;;;5090502;28;20474;-71
2021/06/13 06:05:58;;;;;;;6.77;5.00;;;17.40;99.90;;;;;;5085247;28;21043;-68
2021/06/13 06:08:27;;;;;;;8.17;6.03;;;17.40;99.90;;;;;;5070262;28;20453;-68
2021/06/13 06:10:54;;;;;;;7.07;5.23;;;17.50;99.90;;;;;;5070472;28;20504;-66
2021/06/13 06:13:21;;;;;;;8.83;5.77;;;17.50;99.90;;;;;;5076620;28;20550;-65
2021/06/13 06:15:48;;;;;;;7.80;5.07;;;17.50;99.90;;;;;;5090014;28;20474;-68
2021/06/13 06:18:16;;;;;;;6.50;5.77;;;17.50;99.90;;;;;;5089363;28;20734;-68
2021/06/13 06:20:45;;;;;;;5.67;5.00;;;17.50;99.90;;;;;;5089009;28;20908;-67
2021/06/13 06:23:12;;;;;;;10.23;6.00;;;17.50;99.90;;;;;;5090242;28;20454;-68
2021/06/13 06:25:38;;;;;;;12.53;6.80;;;17.60;99.90;;;;;;5090079;28;20585;-68
2021/06/13 06:28:05;;;;;;;8.00;5.90;;;17.60;99.90;;;;;;5090160;28;20533;-69
2021/06/13 06:30:33;;;;;;;7.00;5.50;;;17.60;99.90;;;;;;5089804;28;20446;-68
2021/06/13 06:32:59;;;;;;;6.97;4.97;;;17.70;99.90;;;;;;5090138;28;20532;-68
2021/06/13 06:35:28;;;;;;;9.77;6.17;;;17.60;99.90;;;;;;5089762;28;20472;-69
2021/06/13 06:37:55;;;;;;;7.27;6.00;;;17.60;99.90;;;;;;5090220;28;20640;-68
2021/06/13 06:40:22;;;;;;;7.43;5.90;;;17.50;99.90;;;;;;5089708;28;20564;-69
2021/06/13 06:42:49;;;;;;;8.53;6.10;;;17.60;99.90;;;;;;5090109;28;20826;-68
2021/06/13 06:45:16;;;;;;;6.97;5.83;;;17.60;99.90;;;;;;5077894;28;20492;-66
2021/06/13 06:47:44;;;;;;;8.60;6.93;;;17.70;99.90;;;;;;5089486;28;20448;-68
2021/06/13 06:50:13;;;;;;;6.30;5.60;;;17.70;99.90;;;;;;5089438;28;20533;-68
2021/06/13 06:52:42;;;;;;;7.60;5.67;;;17.80;99.90;;;;;;5090029;28;20478;-68
2021/06/13 06:55:10;;;;;;;7.30;5.63;;;17.90;99.90;;;;;;5089630;28;20545;-68
2021/06/13 06:57:42;;;;;;;10.27;6.07;;;17.80;99.90;;;;;;5089589;28;20452;-69
2021/06/13 07:00:10;;;;;;;9.77;6.40;;;17.80;99.90;;;;;;5089439;28;20454;-67
2021/06/13 07:02:37;;;;;;;8.97;5.57;;;17.80;99.90;;;;;;5089273;28;20545;-68
2021/06/13 07:05:04;;;;;;;8.63;6.90;;;17.80;99.90;;;;;;5089723;28;20461;-67
2021/06/13 07:07:31;;;;;;;6.87;5.77;;;17.90;99.90;;;;;;5069518;28;20986;-67
2021/06/13 07:09:59;;;;;;;8.47;5.87;;;17.90;99.90;;;;;;5069342;28;20525;-67
2021/06/13 07:12:26;;;;;;;7.83;5.63;;;17.90;99.90;;;;;;5088945;28;20445;-68
2021/06/13 07:14:53;;;;;;;10.83;5.77;;;18.00;99.90;;;;;;5089746;28;20812;-67
2021/06/13 07:17:20;;;;;;;7.83;5.33;;;18.00;99.90;;;;;;5089874;28;20874;-67
2021/06/13 07:19:47;;;;;;;8.03;5.13;;;18.00;99.90;;;;;;5089389;28;20524;-68
2021/06/13 07:22:14;;;;;;;8.87;5.23;;;18.20;99.90;;;;;;5090264;28;20582;-67
2021/06/13 07:24:41;;;;;;;6.87;5.47;;;18.40;99.90;;;;;;5089566;28;20566;-67
2021/06/13 07:27:09;;;;;;;7.20;5.40;;;18.50;99.90;;;;;;5093307;28;20534;-66
2021/06/13 07:29:36;;;;;;;8.07;5.47;;;18.50;99.90;;;;;;5093607;28;20549;-66
2021/06/13 07:32:04;;;;;;;7.90;5.93;;;18.50;99.90;;;;;;5082859;28;20525;-66
2021/06/13 07:34:31;;;;;;;7.13;5.60;;;18.50;99.90;;;;;;5086961;28;20990;-66
2021/06/13 07:37:02;;;;;;;7.03;5.17;;;18.60;99.90;;;;;;5088856;28;20526;-68
2021/06/13 07:39:29;;;;;;;7.20;5.23;;;18.70;99.90;;;;;;5076775;28;20500;-67
2021/06/13 07:41:57;;;;;;;9.33;4.73;;;18.80;99.90;;;;;;5078259;28;20538;-66
2021/06/13 07:44:26;;;;;;;9.80;5.57;;;19.00;99.90;;;;;;5082926;28;20584;-66
2021/06/13 07:46:54;;;;;;;11.00;5.30;;;19.20;99.90;;;;;;5093082;28;21074;-67
2021/06/13 07:49:21;;;;;;;6.20;5.07;;;19.20;99.90;;;;;;5093877;28;20434;-68
2021/06/13 07:51:48;;;;;;;6.93;5.07;;;19.20;99.90;;;;;;5094335;28;20520;-67
2021/06/13 07:54:15;;;;;;;7.00;5.07;;;19.20;99.90;;;;;;5093565;28;20546;-66
2021/06/13 07:56:42;;;;;;;7.10;4.87;;;19.40;99.90;;;;;;5094457;28;20426;-67
2021/06/13 07:59:09;;;;;;;7.53;5.10;;;19.50;99.90;;;;;;5093852;28;20470;-67
2021/06/13 08:01:37;;;;;;;5.80;4.90;;;19.50;99.90;;;;;;5094087;28;20529;-69
2021/06/13 08:04:05;;;;;;;7.27;5.17;;;19.60;99.90;;;;;;5089525;28;20468;-67
2021/06/13 08:06:32;;;;;;;8.73;5.43;;;19.80;99.90;;;;;;5086251;28;20489;-67
2021/06/13 08:08:59;;;;;;;7.50;4.93;;;20.00;99.90;;;;;;5088036;28;20501;-66
2021/06/13 08:11:26;;;;;;;8.93;5.40;;;20.20;99.90;;;;;;5087487;28;20453;-67
2021/06/13 08:13:53;;;;;;;13.30;5.47;;;20.10;99.90;;;;;;5085434;28;20462;-66
2021/06/13 08:16:20;;;;;;;9.57;5.30;;;19.90;99.90;;;;;;5086363;28;20493;-69
2021/06/13 08:18:49;;;;;;;6.73;5.63;;;20.10;99.90;;;;;;5080788;28;20474;-66
2021/06/13 08:21:16;;;;;;;7.70;5.60;;;20.30;99.90;;;;;;5086320;28;20458;-66
2021/06/13 08:23:43;;;;;;;8.83;5.20;;;20.20;99.90;;;;;;5078236;28;20467;-67
2021/06/13 08:26:10;;;;;;;11.30;5.70;;;20.00;99.90;;;;;;5080851;28;20667;-67
2021/06/13 08:28:37;;;;;;;8.60;5.30;;;20.10;99.90;;;;;;5079662;28;20443;-66
2021/06/13 08:31:04;;;;;;;6.60;4.60;;;20.30;99.90;;;;;;5083935;28;20442;-68
2021/06/13 08:33:32;;;;;;;6.27;5.10;;;20.40;99.90;;;;;;5084434;28;21164;-66
2021/06/13 08:36:00;;;;;;;9.80;6.50;;;20.30;99.90;;;;;;5088052;28;20454;-67
2021/06/13 08:38:27;;;;;;;7.40;5.37;;;20.20;99.90;;;;;;5088864;28;21006;-66
2021/06/13 08:40:54;;;;;;;8.00;5.30;;;20.40;99.90;;;;;;5089528;28;20434;-66
2021/06/13 08:43:21;;;;;;;8.87;5.93;;;20.40;99.90;;;;;;5082520;28;20562;-65
2021/06/13 08:45:54;;;;;;;9.17;5.00;;;20.50;99.90;;;;;;5079266;28;20590;-66
2021/06/13 08:48:21;;;;;;;7.77;5.57;;;20.50;99.90;;;;;;5081719;28;20438;-66
2021/06/13 08:50:48;;;;;;;6.77;5.20;;;20.40;99.90;;;;;;5083865;28;20457;-65
2021/06/13 08:53:17;;;;;;;8.23;5.23;;;20.20;99.90;;;;;;5087924;28;20434;-66
2021/06/13 08:55:44;;;;;;;6.37;5.10;;;20.10;99.90;;;;;;5080138;28;20463;-66
2021/06/13 08:58:14;;;;;;;7.13;5.57;;;20.10;99.90;;;;;;5087801;28;20448;-66
2021/06/13 09:00:41;;;;;;;7.77;6.07;;;20.00;99.90;;;;;;5081233;28;20491;-66
2021/06/13 09:03:09;;;;;;;8.70;5.50;;;20.10;99.90;;;;;;5088645;28;21106;-67
2021/06/13 09:05:36;;;;;;;8.63;6.03;;;20.30;99.90;;;;;;5083479;28;20844;-71
2021/06/13 09:08:08;;;;;;;5.53;4.80;;;20.50;99.90;;;;;;5081439;28;20468;-67
2021/06/13 09:10:38;;;;;;;6.93;5.80;;;20.70;99.90;;;;;;5089206;28;21039;-67
2021/06/13 09:13:10;;;;;;;5.83;5.33;;;21.00;99.90;;;;;;5089585;28;20462;-68
2021/06/13 09:15:43;;;;;;;8.70;4.93;;;21.10;99.90;;;;;;5089570;28;20505;-67
2021/06/13 09:18:26;;;;;;;8.17;5.87;;;21.20;99.90;;;;;;5089650;28;20453;-67
2021/06/13 09:20:53;;;;;;;6.20;5.17;;;21.10;99.90;;;;;;5090031;28;20577;-67
2021/06/13 09:23:20;;;;;;;7.40;4.90;;;20.90;99.90;;;;;;5090175;28;20448;-68
2021/06/13 09:25:56;;;;;;;6.10;5.17;;;20.80;99.90;;;;;;5090194;28;20469;-67
2021/06/13 09:28:23;;;;;;;7.60;5.60;;;20.90;99.90;;;;;;5089430;28;21022;-66
2021/06/13 09:30:52;;;;;;;11.33;5.33;;;20.90;99.90;;;;;;5086924;28;20454;-66
2021/06/13 09:33:20;;;;;;;10.57;5.20;;;21.00;99.90;;;;;;5085556;28;20456;-66
2021/06/13 09:35:49;;;;;;;11.03;4.60;;;21.10;99.90;;;;;;5084749;28;20562;-66
2021/06/13 09:38:25;;;;;;;6.20;5.00;;;21.10;99.90;;;;;;5076904;28;21045;-67
2021/06/13 09:40:57;;;;;;;7.80;4.33;;;21.20;99.90;;;;;;5077698;28;20451;-66
2021/06/13 09:43:31;;;;;;;6.40;4.83;;;21.10;99.90;;;;;;5076374;28;20871;-66
2021/06/13 09:46:01;;;;;;;6.57;5.30;;;21.10;99.90;;;;;;5079180;28;20463;-66
2021/06/13 09:48:29;;;;;;;8.57;4.90;;;21.10;99.90;;;;;;5077512;28;20442;-66
2021/06/13 09:50:58;;;;;;;8.70;6.50;;;21.40;99.90;;;;;;5081576;28;20518;-67
2021/06/13 09:53:43;;;;;;;8.47;4.60;;;21.50;99.90;;;;;;5079204;28;21333;-67
2021/06/13 09:56:27;;;;;;;5.40;4.90;;;21.40;99.90;;;;;;5070262;28;20960;-67
2021/06/13 09:59:06;;;;;;;7.33;5.43;;;21.50;99.90;;;;;;5077462;28;20475;-65
2021/06/13 10:01:38;;;;;;;4.70;4.13;;;22.10;99.90;;;;;;5079921;28;20454;-67
2021/06/13 10:04:06;;;;;;;5.33;4.10;;;22.90;99.90;;;;;;5081170;28;20474;-67
2021/06/13 10:06:36;;;;;;;6.00;4.50;;;23.60;96.90;;;;;;5082095;28;20484;-67
2021/06/13 10:09:05;;;;;;;7.57;5.20;;;23.50;97.70;;;;;;5080239;28;20451;-67
2021/06/13 10:11:36;;;;;;;5.83;4.50;;;23.90;98.70;;;;;;5080914;28;20459;-67
2021/06/13 10:14:06;;;;;;;4.87;3.87;;;24.40;94.90;;;;;;5077345;28;20922;-66
2021/06/13 10:16:36;;;;;;;7.50;4.60;;;24.90;95.40;;;;;;5080065;28;20475;-66
2021/06/13 10:19:06;;;;;;;6.50;4.60;;;24.90;94.90;;;;;;5077114;28;20442;-66
2021/06/13 10:21:36;;;;;;;5.47;4.80;;;25.00;94.30;;;;;;5078207;28;20819;-66
2021/06/13 10:24:06;;;;;;;6.10;3.93;;;25.10;93.90;;;;;;5077458;28;20467;-66
2021/06/13 10:26:35;;;;;;;5.20;4.00;;;25.60;93.20;;;;;;5067685;28;20833;-67
2021/06/13 10:29:03;;;;;;;4.83;3.37;;;25.40;92.40;;;;;;5077713;28;20447;-67
2021/06/13 10:31:30;;;;;;;5.30;3.70;;;25.60;92.40;;;;;;5076475;28;20817;-68
2021/06/13 10:33:58;;;;;;;4.27;3.43;;;25.70;92.10;;;;;;5073314;28;20470;-67
2021/06/13 10:36:25;;;;;;;5.00;3.30;;;25.80;91.30;;;;;;5083394;28;20810;-67
2021/06/13 10:38:52;;;;;;;6.63;4.10;;;25.60;89.70;;;;;;5079595;28;20451;-66
2021/06/13 10:41:19;;;;;;;5.30;3.87;;;25.40;91.30;;;;;;5078212;28;20451;-66
2021/06/13 10:43:48;;;;;;;5.97;3.60;;;25.10;92.00;;;;;;5086540;28;20561;-67
2021/06/13 10:46:17;;;;;;;4.90;3.63;;;24.70;91.80;;;;;;5088818;28;20541;-65
2021/06/13 10:48:51;;;;;;;5.20;3.50;;;24.70;91.70;;;;;;5085757;28;20507;-68
2021/06/13 10:51:37;;;;;;;4.73;4.10;;;25.10;92.10;;;;;;5090402;28;20454;-69
2021/06/13 10:54:24;;;;;;;4.30;3.57;;;25.40;90.50;;;;;;5089891;28;20995;-68
2021/06/13 10:56:53;;;;;;;6.80;3.50;;;25.50;91.00;;;;;;5090973;28;20438;-68
2021/06/13 10:59:21;;;;;;;7.33;3.70;;;25.50;90.60;;;;;;5089453;28;20525;-68
2021/06/13 11:02:09;;;;;;;5.00;3.27;;;25.10;90.40;;;;;;5089498;28;20446;-68
2021/06/13 11:04:44;;;;;;;4.10;3.10;;;25.10;90.50;;;;;;5075061;28;20502;-68
2021/06/13 11:07:11;;;;;;;5.63;3.10;;;25.40;87.60;;;;;;5070565;28;20506;-67
2021/06/13 11:10:13;;;;;;;4.20;3.17;;;25.90;86.70;;;;;;5072975;28;20451;-68
2021/06/13 11:12:41;;;;;;;5.57;2.83;;;26.30;83.50;;;;;;5070886;28;20823;-67
2021/06/13 11:15:10;;;;;;;4.50;3.70;;;26.40;84.70;;;;;;5069893;28;20467;-68
2021/06/13 11:17:53;;;;;;;5.67;3.30;;;26.40;83.70;;;;;;5070096;28;20443;-67
2021/06/13 11:20:45;;;;;;;7.83;2.67;;;26.30;84.30;;;;;;5069393;28;20537;-67
2021/06/13 11:23:15;;;;;;;4.03;3.00;;;25.90;81.80;;;;;;5069897;28;20474;-68
2021/06/13 11:25:43;;;;;;;4.63;3.13;;;26.10;82.40;;;;;;5077536;28;20471;-70
2021/06/13 11:28:12;;;;;;;4.97;3.40;;;26.30;79.40;;;;;;5070381;28;20552;-68
2021/06/13 11:30:42;;;;;;;5.63;3.40;;;26.10;79.20;;;;;;5069822;28;20458;-68
2021/06/13 11:33:10;;;;;;;4.87;3.17;;;26.50;82.20;;;;;;5071386;28;20461;-68
2021/06/13 11:35:43;;;;;;;6.00;3.00;;;26.90;83.10;;;;;;5077741;28;20525;-67
2021/06/13 11:38:29;;;;;;;4.00;3.00;;;27.40;80.20;;;;;;5069635;28;20486;-70
2021/06/13 11:40:59;;;;;;;7.67;3.53;;;27.50;76.90;;;;;;5076710;28;20478;-69
2021/06/13 11:43:30;;;;;;;3.87;3.17;;;27.90;78.60;;;;;;5082464;28;20523;-68
2021/06/13 11:46:04;;;;;;;6.63;3.50;;;27.70;78.10;;;;;;5078310;28;21011;-67
2021/06/13 11:48:33;;;;;;;3.50;2.60;;;27.70;76.30;;;;;;5080743;28;21175;-69
2021/06/13 11:51:06;;;;;;;5.63;3.00;;;28.20;77.40;;;;;;5078662;28;21045;-68
2021/06/13 11:53:57;;;;;;;4.57;3.27;;;28.70;76.10;;;;;;5081995;28;20542;-68
2021/06/13 11:56:40;;;;;;;4.50;3.27;;;28.80;78.40;;;;;;5070009;28;20494;-69
2021/06/13 11:59:09;;;;;;;6.77;2.80;;;28.20;73.30;;;;;;5069057;28;20435;-68
2021/06/13 12:01:39;;;;;;;5.00;2.87;;;27.50;74.30;;;;;;5068730;28;21015;-70
2021/06/13 12:04:08;;;;;;;6.63;2.83;;;27.50;78.10;;;;;;5070075;28;20475;-69
2021/06/13 12:06:35;;;;;;;4.50;2.87;;;27.20;72.60;;;;;;5071511;28;21305;-69
2021/06/13 12:09:08;;;;;;;5.20;2.97;;;27.30;71.50;;;;;;5080241;28;20453;-69
2021/06/13 12:11:39;;;;;;;4.27;2.73;;;27.60;76.60;;;;;;5079467;28;20439;-68
2021/06/13 12:14:23;;;;;;;6.40;3.80;;;27.70;78.40;;;;;;5080720;28;20509;-68
2021/06/13 12:16:54;;;;;;;5.63;3.20;;;28.50;76.20;;;;;;5083759;28;20566;-68
2021/06/13 12:19:39;;;;;;;4.83;2.80;;;28.60;74.00;;;;;;5081953;28;20442;-66
2021/06/13 12:22:26;;;;;;;5.07;3.80;;;28.30;76.80;;;;;;5080317;28;20439;-68
2021/06/13 12:27:36;;;;;;;4.20;3.00;;;28.70;80.00;;;;;;5041399;28;21032;-68
2021/06/13 12:30:06;;;;;;;3.37;2.73;;;28.70;73.10;;;;;;5081794;28;20470;-67
2021/06/13 12:32:36;;;;;;;3.63;2.90;;;28.60;69.90;;;;;;5082456;28;20871;-67
2021/06/13 12:35:08;;;;;;;5.57;2.70;;;28.20;71.50;;;;;;5082056;28;20519;-68
2021/06/13 12:37:35;;;;;;;4.73;2.83;;;28.10;71.20;;;;;;5079727;28;20485;-69
2021/06/13 12:40:06;;;;;;;3.63;2.53;;;28.80;67.10;;;;;;5081449;28;20549;-68
2021/06/13 12:42:33;;;;;;;3.67;2.90;;;29.30;74.00;;;;;;5079667;28;20491;-68
2021/06/13 12:45:03;;;;;;;4.77;3.37;;;30.30;72.00;;;;;;5083429;28;20488;-68
2021/06/13 12:47:30;;;;;;;3.87;2.77;;;31.10;73.10;;;;;;5083524;28;21135;-66
2021/06/13 12:49:59;;;;;;;5.10;3.03;;;30.70;64.60;;;;;;5090848;28;20474;-66
2021/06/13 12:52:27;;;;;;;4.03;2.90;;;30.20;66.10;;;;;;5092612;28;20553;-67
2021/06/13 12:54:56;;;;;;;6.03;3.03;;;30.00;66.60;;;;;;5092207;28;20473;-69
2021/06/13 12:57:24;;;;;;;3.60;2.60;;;29.60;70.80;;;;;;5092458;28;20943;-68